.
WxDataArchive / Data Records for 2010-10-01
2010-09-30 October 2010 2010-10-02

Data Records for Friday, 01 October 2010

Time	Temp	Chill	HIndex	Humid	Dewpt	 Wind 	HiWind	WindDir	Rain 	Barom 
-----	----	-----	------	-----	-----	------	------	-------	-----	----- 
00:00	55.7	55.7	55.7	69	45.7	0	1	292	0.00	29.993 
00:05	55.6	55.6	55.6	69	45.6	0	2	292	0.00	29.993 
00:10	55.6	55.6	55.6	69	45.6	0	1	292	0.00	29.993 
00:15	55.4	55.4	55.4	69	45.4	0	2	292	0.00	29.997 
00:20	55.3	55.3	55.3	69	45.3	0	1	292	0.00	29.997 
00:25	55.1	55.1	55.1	70	45.5	0	3	68	0.00	29.997 
00:30	55.0	55.0	55.0	70	45.4	0	2	68	0.00	29.999 
00:35	54.8	54.8	54.8	70	45.2	0	3	270	0.00	29.999 
00:40	54.7	54.7	54.7	70	45.1	0	1	292	0.00	29.999 
00:45	54.5	54.5	54.5	71	45.3	0	1	292	0.00	30.001 
00:50	54.4	54.4	54.4	71	45.2	0	1	292	0.00	30.001 
00:55	54.2	54.2	54.2	71	45.0	0	1	292	0.00	30.001 
01:00	54.1	54.1	54.1	72	45.3	0	1	292	0.00	30.008 
01:05	53.9	53.9	53.9	72	45.1	0	1	292	0.00	30.008 
01:10	53.8	53.8	53.8	72	45.0	0	2	292	0.00	30.008 
01:15	53.6	53.6	53.6	72	44.8	0	1	292	0.00	30.011 
01:20	53.5	53.5	53.5	73	45.1	0	1	292	0.00	30.011 
01:25	53.3	53.3	53.3	73	44.9	0	1	292	0.00	30.011 
01:30	53.1	53.1	53.1	73	44.7	0	1	292	0.00	30.015 
01:35	52.9	52.9	52.9	74	44.8	0	1	292	0.00	30.015 
01:40	52.8	52.8	52.8	74	44.7	0	0	---	0.00	30.015 
01:45	52.8	52.8	52.8	74	44.7	0	1	292	0.00	30.018 
01:50	52.6	52.6	52.6	74	44.6	0	1	292	0.00	30.018 
01:55	52.5	52.5	52.5	75	44.8	0	0	---	0.00	30.018 
02:00	52.3	52.3	52.3	75	44.6	0	0	---	0.00	30.027 
02:05	52.0	52.0	52.0	76	44.7	0	0	---	0.00	30.027 
02:10	51.7	51.7	51.7	76	44.4	0	0	---	0.00	30.027 
02:15	51.7	51.7	51.7	76	44.4	0	0	---	0.00	30.029 
02:20	51.4	51.4	51.4	77	44.4	0	0	---	0.00	30.029 
02:25	51.3	51.3	51.3	77	44.3	0	0	---	0.00	30.029 
02:30	51.0	51.0	51.0	77	44.0	0	0	---	0.00	30.030 
02:35	50.8	50.8	50.8	78	44.2	0	0	---	0.00	30.030 
02:40	50.5	50.5	50.5	78	43.9	0	0	---	0.00	30.030 
02:45	50.2	50.2	50.2	79	43.9	0	0	---	0.00	30.033 
02:50	49.8	49.8	49.8	80	43.9	0	0	---	0.00	30.033 
02:55	49.4	49.4	49.4	80	43.5	0	0	---	0.00	30.033 
03:00	48.9	48.9	48.9	81	43.3	0	0	---	0.00	30.031 
03:05	48.6	48.6	48.6	82	43.4	0	0	---	0.00	30.031 
03:10	48.2	48.2	48.2	83	43.3	0	0	---	0.00	30.031 
03:15	48.0	48.0	48.0	84	43.4	0	0	---	0.00	30.037 
03:20	48.0	48.0	48.0	84	43.4	0	0	---	0.00	30.037 
03:25	48.0	48.0	48.0	85	43.7	0	0	---	0.00	30.037 
03:30	47.9	47.9	47.9	85	43.6	0	0	---	0.00	30.035 
03:35	47.7	47.7	47.7	85	43.4	0	0	---	0.00	30.035 
03:40	47.7	47.7	47.7	85	43.4	0	0	---	0.00	30.035 
03:45	47.6	47.6	47.6	86	43.6	0	0	---	0.00	30.035 
03:50	47.6	47.6	47.6	86	43.6	0	0	---	0.00	30.035 
03:55	47.6	47.6	47.6	86	43.6	0	0	---	0.00	30.035 
04:00	47.6	47.6	47.6	86	43.6	0	0	---	0.00	30.036 
04:05	47.6	47.6	47.6	86	43.6	0	0	---	0.00	30.036 
04:10	47.4	47.4	47.4	86	43.4	0	0	---	0.00	30.036 
04:15	47.3	47.3	47.3	86	43.3	0	0	---	0.00	30.044 
04:20	47.1	47.1	47.1	87	43.4	0	0	---	0.00	30.044 
04:25	47.0	47.0	47.0	87	43.3	0	0	---	0.00	30.044 
04:30	47.0	47.0	47.0	87	43.3	0	0	---	0.00	30.050 
04:35	46.8	46.8	46.8	87	43.1	0	0	---	0.00	30.050 
04:40	46.7	46.7	46.7	87	43.0	0	0	---	0.00	30.050 
04:45	46.5	46.5	46.5	87	42.8	0	0	---	0.00	30.052 
04:50	46.5	46.5	46.5	88	43.1	0	0	---	0.00	30.052 
04:55	46.4	46.4	46.4	87	42.7	0	0	---	0.00	30.052 
05:00	46.2	46.2	46.2	88	42.8	0	0	---	0.00	30.052 
05:05	46.1	46.1	46.1	88	42.7	0	0	---	0.00	30.052 
05:10	46.2	46.2	46.2	88	42.8	0	0	---	0.00	30.052 
05:15	46.4	46.4	46.4	88	43.0	0	0	---	0.00	30.055 
05:20	46.2	46.2	46.2	88	42.8	0	0	---	0.00	30.055 
05:25	46.0	46.0	46.0	88	42.6	0	0	---	0.00	30.055 
05:30	45.7	45.7	45.7	88	42.4	0	0	---	0.00	30.055 
05:35	45.4	45.4	45.4	88	42.1	0	0	---	0.00	30.055 
05:40	45.1	45.1	45.1	88	41.8	0	0	---	0.00	30.055 
05:45	44.9	44.9	44.9	88	41.6	0	0	---	0.00	30.056 
05:50	44.6	44.6	44.6	88	41.3	0	0	---	0.00	30.056 
05:55	44.5	44.5	44.5	88	41.2	0	0	---	0.00	30.056 
06:00	44.3	44.3	44.3	89	41.3	0	0	---	0.00	30.056 
06:05	44.2	44.2	44.2	89	41.2	0	0	---	0.00	30.056 
06:10	44.1	44.1	44.1	89	41.1	0	0	---	0.00	30.056 
06:15	43.9	43.9	43.9	89	40.9	0	0	---	0.00	30.061 
06:20	43.9	43.9	43.9	90	41.2	0	0	---	0.00	30.061 
06:25	44.5	44.5	44.5	91	42.0	0	0	---	0.00	30.061 
06:30	44.8	44.8	44.8	92	42.6	0	0	---	0.00	30.062 
06:35	45.1	45.1	45.1	92	42.9	0	0	---	0.00	30.062 
06:40	45.2	45.2	45.2	92	43.0	0	0	---	0.00	30.062 
06:45	45.2	45.2	45.2	92	43.0	0	0	---	0.00	30.066 
06:50	45.2	45.2	45.2	91	42.7	0	0	---	0.00	30.066 
06:55	44.9	44.9	44.9	91	42.4	0	0	---	0.00	30.066 
07:00	44.9	44.9	44.9	92	42.7	0	0	---	0.00	30.070 
07:05	45.1	45.1	45.1	92	42.9	0	0	---	0.00	30.070 
07:10	44.9	44.9	44.9	92	42.7	0	0	---	0.00	30.070 
07:15	44.9	44.9	44.9	92	42.7	0	0	---	0.00	30.077 
07:20	44.9	44.9	44.9	92	42.7	0	0	---	0.00	30.077 
07:25	44.9	44.9	44.9	92	42.7	0	0	---	0.00	30.077 
07:30	44.9	44.9	44.9	92	42.7	0	0	---	0.00	30.079 
07:35	44.6	44.6	44.6	91	42.1	0	0	---	0.00	30.079 
07:40	44.5	44.5	44.5	91	42.0	0	0	---	0.00	30.079 
07:45	44.2	44.2	44.2	91	41.7	0	0	---	0.00	30.087 
07:50	44.1	44.1	44.1	91	41.6	0	0	---	0.00	30.087 
07:55	43.8	43.8	43.8	91	41.3	0	0	---	0.00	30.087 
08:00	43.6	43.6	43.6	91	41.1	0	0	---	0.00	30.092 
08:05	43.5	43.5	43.5	91	41.0	0	0	---	0.00	30.092 
08:10	43.5	43.5	43.5	92	41.3	0	0	---	0.00	30.092 
08:15	43.8	43.8	43.8	92	41.6	0	0	---	0.00	30.097 
08:20	44.1	44.1	44.1	92	41.9	0	0	---	0.00	30.097 
08:25	44.8	44.8	44.8	93	42.9	0	0	---	0.00	30.097 
08:30	45.5	45.5	45.5	93	43.6	0	1	292	0.00	30.100 
08:35	46.1	46.1	46.1	93	44.2	0	0	---	0.00	30.100 
08:40	46.5	46.5	46.5	92	44.3	0	0	---	0.00	30.100 
08:45	47.0	47.0	47.0	92	44.8	0	0	---	0.00	30.106 
08:50	47.4	47.4	47.4	91	44.9	0	1	292	0.00	30.106 
08:55	47.9	47.9	47.9	90	45.1	0	0	---	0.00	30.106 
09:00	48.3	48.3	48.3	89	45.2	0	0	---	0.00	30.110 
09:05	48.6	48.6	48.6	88	45.2	0	1	225	0.00	30.110 
09:10	49.2	49.2	49.2	87	45.5	0	1	225	0.00	30.110 
09:15	49.6	49.6	49.6	85	45.3	0	2	225	0.00	30.110 
09:20	50.1	50.1	50.1	84	45.5	0	1	225	0.00	30.110 
09:25	50.5	50.5	50.5	82	45.2	0	1	225	0.00	30.110 
09:30	51.1	51.1	51.1	81	45.5	0	0	---	0.00	30.113 
09:35	51.6	51.6	51.6	80	45.6	0	0	---	0.00	30.113 
09:40	51.9	51.9	51.9	78	45.3	0	0	---	0.00	30.113 
09:45	52.3	52.3	52.3	78	45.6	0	0	---	0.00	30.119 
09:50	52.6	52.6	52.6	77	45.6	0	0	---	0.00	30.119 
09:55	53.1	53.1	53.1	76	45.7	0	1	225	0.00	30.119 
10:00	53.6	53.6	53.6	73	45.2	0	2	225	0.00	30.117 
10:05	54.5	54.5	54.5	71	45.3	0	0	---	0.00	30.117 
10:10	55.3	55.3	55.3	69	45.3	0	1	225	0.00	30.117 
10:15	56.0	56.0	56.0	66	44.8	0	1	225	0.00	30.116 
10:20	56.6	56.6	56.6	64	44.6	0	2	248	0.00	30.116 
10:25	57.2	57.2	57.2	64	45.1	0	2	248	0.00	30.116 
10:30	57.8	57.8	57.8	62	44.9	1	2	248	0.00	30.116 
10:35	58.3	58.3	58.3	61	44.9	0	2	248	0.00	30.116 
10:40	59.2	59.2	59.2	59	44.9	0	1	248	0.00	30.116 
10:45	59.5	59.5	59.5	57	44.3	1	3	248	0.00	30.113 
10:50	59.6	59.6	59.6	57	44.3	0	2	248	0.00	30.113 
10:55	59.9	59.9	59.9	55	43.7	1	3	135	0.00	30.113 
11:00	60.5	60.5	60.5	53	43.3	1	3	22	0.00	30.105 
11:05	61.0	61.0	61.0	54	44.2	0	2	22	0.00	30.105 
11:10	61.2	61.2	61.2	52	43.4	1	3	22	0.00	30.105 
11:15	61.2	61.2	61.2	52	43.4	1	3	315	0.00	30.106 
11:20	61.2	61.2	61.2	52	43.4	1	2	315	0.00	30.106 
11:25	61.2	61.2	61.2	52	43.4	1	4	338	0.00	30.106 
11:30	61.8	61.8	61.8	50	43.0	0	2	270	0.00	30.101 
11:35	62.3	62.3	62.3	50	43.4	0	2	270	0.00	30.101 
11:40	62.4	62.4	62.4	50	43.5	1	4	270	0.00	30.101 
11:45	62.7	62.7	62.7	50	43.8	1	3	270	0.00	30.099 
11:50	63.4	63.4	63.4	50	44.4	1	5	90	0.00	30.099 
11:55	63.7	63.7	63.7	45	42.0	0	2	112	0.00	30.099 
12:00	64.0	64.0	64.0	47	43.4	1	6	112	0.00	30.098 
12:05	64.5	64.5	64.5	46	43.3	1	4	112	0.00	30.098 
12:10	64.2	64.2	64.2	43	41.2	0	2	112	0.00	30.098 
12:15	64.2	64.2	64.2	43	41.2	1	2	68	0.00	30.096 
12:20	64.5	64.5	64.5	42	40.9	0	2	292	0.00	30.096 
12:25	64.5	64.5	64.5	42	40.9	1	4	292	0.00	30.096 
12:30	64.8	64.8	64.8	45	43.0	0	1	112	0.00	30.095 
12:35	65.2	65.2	65.2	43	42.1	0	1	68	0.00	30.095 
12:40	65.8	65.8	65.8	43	42.7	0	2	68	0.00	30.095 
12:45	66.0	66.0	66.0	40	41.0	0	2	338	0.00	30.085 
12:50	65.3	65.3	65.3	40	40.4	2	5	315	0.00	30.085 
12:55	65.3	65.3	65.3	40	40.4	2	4	292	0.00	30.085 
13:00	65.3	65.3	65.3	39	39.7	1	3	22	0.00	30.086 
13:05	65.6	65.6	65.6	39	40.0	1	3	270	0.00	30.086 
13:10	65.8	65.8	65.8	41	41.4	1	3	0	0.00	30.086 
13:15	65.8	65.8	65.8	41	41.4	2	7	270	0.00	30.085 
13:20	66.0	66.0	66.0	41	41.6	1	3	270	0.00	30.085 
13:25	66.1	66.1	66.1	39	40.4	2	5	292	0.00	30.085 
13:30	66.3	66.3	66.3	38	39.9	1	4	292	0.00	30.079 
13:35	66.4	66.4	66.4	39	40.7	1	4	270	0.00	30.079 
13:40	66.6	66.6	66.6	38	40.2	1	4	315	0.00	30.079 
13:45	66.9	66.9	66.9	39	41.1	1	3	0	0.00	30.073 
13:50	67.4	67.4	67.4	39	41.6	1	3	248	0.00	30.073 
13:55	67.3	67.3	67.3	36	39.4	2	5	292	0.00	30.073 
14:00	66.9	66.9	66.9	37	39.8	1	4	315	0.00	30.068 
14:05	67.1	67.1	67.1	37	40.0	1	3	0	0.00	30.068 
14:10	67.1	67.1	67.1	39	41.3	1	3	338	0.00	30.068 
14:15	67.6	67.6	67.6	38	41.1	1	3	0	0.00	30.062 
14:20	67.3	67.3	67.3	36	39.4	2	5	338	0.00	30.062 
14:25	67.4	67.4	67.4	38	40.9	1	3	248	0.00	30.062 
14:30	67.8	67.8	67.8	38	41.3	1	4	248	0.00	30.056 
14:35	68.1	68.1	68.1	37	40.8	1	3	338	0.00	30.056 
14:40	68.1	68.1	68.1	38	41.5	0	2	338	0.00	30.056 
14:45	67.9	67.9	67.9	36	40.0	1	5	315	0.00	30.051 
14:50	67.8	67.8	67.8	36	39.9	2	7	292	0.00	30.051 
14:55	67.6	67.6	67.6	38	41.1	2	7	315	0.00	30.051 
15:00	67.8	67.8	67.8	37	40.6	1	4	292	0.00	30.045 
15:05	68.1	68.1	68.1	37	40.8	1	2	22	0.00	30.045 
15:10	68.1	68.1	68.1	36	40.1	1	4	292	0.00	30.045 
15:15	67.9	67.9	67.9	36	40.0	1	4	292	0.00	30.041 
15:20	67.9	67.9	67.9	35	39.2	1	4	112	0.00	30.041 
15:25	67.9	67.9	67.9	35	39.2	1	3	292	0.00	30.041 
15:30	67.8	67.8	67.8	36	39.9	1	4	315	0.00	30.040 
15:35	67.9	67.9	67.9	36	40.0	0	2	315	0.00	30.040 
15:40	68.3	68.3	68.3	36	40.3	1	4	292	0.00	30.040 
15:45	68.4	68.4	68.4	35	39.7	2	5	292	0.00	30.038 
15:50	68.4	68.4	68.4	35	39.7	1	4	338	0.00	30.038 
15:55	68.4	68.4	68.4	36	40.4	1	4	315	0.00	30.038 
16:00	68.3	68.3	68.3	35	39.6	1	3	338	0.00	30.036 
16:05	68.1	68.1	68.1	35	39.4	1	5	270	0.00	30.036 
16:10	68.1	68.1	68.1	36	40.1	1	5	292	0.00	30.036 
16:15	68.1	68.1	68.1	36	40.1	1	4	248	0.00	30.033 
16:20	68.3	68.3	68.3	36	40.3	3	6	270	0.00	30.033 
16:25	68.3	68.3	68.3	36	40.3	1	3	270	0.00	30.033 
16:30	68.3	68.3	68.3	35	39.6	2	7	270	0.00	30.029 
16:35	68.4	68.4	68.4	36	40.4	1	4	270	0.00	30.029 
16:40	68.3	68.3	68.3	35	39.6	1	6	270	0.00	30.029 
16:45	68.4	68.4	68.4	37	41.1	1	4	90	0.00	30.025 
16:50	68.6	68.6	68.6	35	39.8	2	9	270	0.00	30.025 
16:55	68.8	68.8	68.8	35	40.0	1	2	22	0.00	30.025 
17:00	68.6	68.6	68.6	35	39.8	1	2	315	0.00	30.025 
17:05	68.4	68.4	68.4	35	39.7	1	4	315	0.00	30.025 
17:10	68.4	68.4	68.4	35	39.7	0	3	292	0.00	30.025 
17:15	68.4	68.4	68.4	37	41.1	0	3	158	0.00	30.026 
17:20	68.6	68.6	68.6	36	40.6	0	2	45	0.00	30.026 
17:25	68.4	68.4	68.4	34	38.9	1	4	45	0.00	30.026 
17:30	67.9	67.9	67.9	35	39.2	0	3	338	0.00	30.029 
17:35	67.4	67.4	67.4	35	38.8	0	2	315	0.00	30.029 
17:40	67.1	67.1	67.1	35	38.5	0	2	315	0.00	30.029 
17:45	66.8	66.8	66.8	35	38.3	0	1	315	0.00	30.030 
17:50	66.9	66.9	66.9	37	39.8	0	1	315	0.00	30.030 
17:55	66.9	66.9	66.9	36	39.1	0	2	315	0.00	30.030 
18:00	66.8	66.8	66.8	36	39.0	0	1	315	0.00	30.031 
18:05	66.8	66.8	66.8	38	40.4	0	2	315	0.00	30.031 
18:10	66.8	66.8	66.8	38	40.4	1	2	315	0.00	30.031 
18:15	66.9	66.9	66.9	38	40.5	1	4	270	0.00	30.030 
18:20	66.9	66.9	66.9	37	39.8	1	2	270	0.00	30.030 
18:25	66.9	66.9	66.9	38	40.5	1	3	270	0.00	30.030 
18:30	67.1	67.1	67.1	38	40.6	0	3	315	0.00	30.029 
18:35	66.9	66.9	66.9	38	40.5	0	1	315	0.00	30.029 
18:40	66.8	66.8	66.8	39	41.0	0	1	315	0.00	30.029 
18:45	66.6	66.6	66.6	40	41.5	0	1	315	0.00	30.027 
18:50	66.4	66.4	66.4	40	41.3	0	0	---	0.00	30.027 
18:55	66.3	66.3	66.3	41	41.9	0	1	315	0.00	30.027 
19:00	66.0	66.0	66.0	41	41.6	0	0	---	0.00	30.028 
19:05	65.8	65.8	65.8	42	42.1	0	0	---	0.00	30.028 
19:10	65.6	65.6	65.6	42	41.9	0	0	---	0.00	30.028 
19:15	65.3	65.3	65.3	43	42.2	0	0	---	0.00	30.031 
19:20	65.0	65.0	65.0	43	42.0	0	0	---	0.00	30.031 
19:25	64.7	64.7	64.7	43	41.7	0	0	---	0.00	30.031 
19:30	64.2	64.2	64.2	44	41.8	0	0	---	0.00	30.032 
19:35	63.7	63.7	63.7	45	42.0	0	0	---	0.00	30.032 
19:40	63.2	63.2	63.2	46	42.1	0	0	---	0.00	30.032 
19:45	62.7	62.7	62.7	48	42.7	0	0	---	0.00	30.030 
19:50	62.1	62.1	62.1	50	43.2	0	0	---	0.00	30.030 
19:55	61.3	61.3	61.3	52	43.5	0	0	---	0.00	30.030 
20:00	60.7	60.7	60.7	53	43.5	0	0	---	0.00	30.033 
20:05	60.1	60.1	60.1	54	43.4	0	0	---	0.00	30.033 
20:10	59.3	59.3	59.3	56	43.6	0	0	---	0.00	30.033 
20:15	58.9	58.9	58.9	58	44.1	0	0	---	0.00	30.027 
20:20	58.4	58.4	58.4	59	44.1	0	0	---	0.00	30.027 
20:25	57.8	57.8	57.8	60	44.0	0	0	---	0.00	30.027 
20:30	57.2	57.2	57.2	62	44.3	0	0	---	0.00	30.031 
20:35	56.6	56.6	56.6	63	44.2	0	0	---	0.00	30.031 
20:40	56.2	56.2	56.2	64	44.2	0	0	---	0.00	30.031 
20:45	55.7	55.7	55.7	65	44.1	0	0	---	0.00	30.032 
20:50	55.4	55.4	55.4	66	44.2	0	0	---	0.00	30.032 
20:55	55.1	55.1	55.1	66	43.9	0	0	---	0.00	30.032 
21:00	54.8	54.8	54.8	67	44.1	0	0	---	0.00	30.032 
21:05	54.5	54.5	54.5	68	44.2	0	0	---	0.00	30.032 
21:10	54.2	54.2	54.2	69	44.3	0	0	---	0.00	30.032 
21:15	53.9	53.9	53.9	70	44.3	0	0	---	0.00	30.022 
21:20	53.6	53.6	53.6	71	44.4	0	0	---	0.00	30.022 
21:25	53.5	53.5	53.5	73	45.1	0	0	---	0.00	30.022 
21:30	53.3	53.3	53.3	74	45.2	0	0	---	0.00	30.017 
21:35	53.1	53.1	53.1	74	45.0	0	0	---	0.00	30.017 
21:40	52.8	52.8	52.8	74	44.7	0	0	---	0.00	30.017 
21:45	52.6	52.6	52.6	75	44.9	0	0	---	0.00	30.016 
21:50	52.5	52.5	52.5	75	44.8	0	0	---	0.00	30.016 
21:55	52.2	52.2	52.2	76	44.9	0	0	---	0.00	30.016 
22:00	52.2	52.2	52.2	77	45.2	0	0	---	0.00	30.014 
22:05	52.0	52.0	52.0	77	45.0	0	0	---	0.00	30.014 
22:10	51.9	51.9	51.9	78	45.3	0	0	---	0.00	30.014 
22:15	51.9	51.9	51.9	78	45.3	0	0	---	0.00	30.001 
22:20	51.9	51.9	51.9	78	45.3	0	0	---	0.00	30.001 
22:25	51.7	51.7	51.7	78	45.1	0	0	---	0.00	30.001 
22:30	51.7	51.7	51.7	78	45.1	0	0	---	0.00	29.999 
22:35	51.4	51.4	51.4	79	45.1	0	0	---	0.00	29.999 
22:40	51.3	51.3	51.3	79	45.0	0	0	---	0.00	29.999 
22:45	51.1	51.1	51.1	79	44.8	0	0	---	0.00	29.995 
22:50	51.1	51.1	51.1	79	44.8	0	0	---	0.00	29.995 
22:55	51.0	51.0	51.0	80	45.0	0	0	---	0.00	29.995 
23:00	51.0	51.0	51.0	80	45.0	0	0	---	0.00	29.992 
23:05	50.8	50.8	50.8	80	44.9	0	0	---	0.00	29.992 
23:10	50.8	50.8	50.8	80	44.9	0	0	---	0.00	29.992 
23:15	50.8	50.8	50.8	80	44.9	0	0	---	0.00	29.980 
23:20	50.7	50.7	50.7	80	44.8	0	0	---	0.00	29.980 
23:25	50.7	50.7	50.7	80	44.8	0	0	---	0.00	29.980 
23:30	50.7	50.7	50.7	80	44.8	0	0	---	0.00	29.977 
23:35	50.5	50.5	50.5	81	44.9	0	0	---	0.00	29.977 
23:40	50.5	50.5	50.5	81	44.9	0	0	---	0.00	29.977 
23:45	50.5	50.5	50.5	81	44.9	0	0	---	0.00	29.966 
23:50	50.5	50.5	50.5	81	44.9	0	0	---	0.00	29.966 
23:55	50.5	50.5	50.5	81	44.9	0	0	---	0.00	29.966 

CoCoRaHS
IN-AL-39
A2 Web Hosting
Creative Commons License
GoDaddy
search engine by freefind advanced

loaded 2018-11-15 16:49:01 • last modified 2010-11-18 10:43:29
Privacy PolicyDisclaimer
• wx.awcolley.com is powered by PmWiki v.2002016 •
• all content (unless otherwise noted) © 2018 A W Colley